Time;durP1;ratioP1;P1;durP2;ratioP2;P2;SDS_P1;SDS_P2;PMS_P1;PMS_P2;Temp;Humidity;BMP_temperature;BMP_pressure;BME280_temperature;BME280_humidity;BME280_pressure;Samples;Min_cycle;Max_cycle;Signal;HPM_P1;HPM_P2
2023/02/27 00:00:45;;;;;;;6.88;4.60;;;1.10;99.90;;;;;;2043114;28;20043;-72
2023/02/27 00:01:46;;;;;;;5.22;4.03;;;1.10;99.90;;;;;;2035739;29;20034;-72
2023/02/27 00:02:48;;;;;;;5.68;4.72;;;1.10;99.90;;;;;;2035432;29;20136;-72
2023/02/27 00:03:48;;;;;;;5.30;4.38;;;1.10;99.90;;;;;;2044646;28;20035;-72
2023/02/27 00:04:49;;;;;;;6.75;4.78;;;1.10;99.90;;;;;;2043556;28;20036;-72
2023/02/27 00:05:50;;;;;;;4.85;4.07;;;1.10;99.90;;;;;;2044410;28;20020;-72
2023/02/27 00:06:50;;;;;;;5.10;4.43;;;1.00;99.90;;;;;;2043377;28;20158;-72
2023/02/27 00:07:51;;;;;;;7.97;4.40;;;1.10;99.90;;;;;;2041678;28;20808;-72
2023/02/27 00:08:51;;;;;;;5.07;4.07;;;1.10;99.90;;;;;;2043803;28;20604;-72
2023/02/27 00:09:52;;;;;;;4.82;4.25;;;1.00;99.90;;;;;;2044682;28;20022;-72
2023/02/27 00:10:52;;;;;;;6.20;4.25;;;1.00;99.90;;;;;;2045147;28;20034;-72
2023/02/27 00:11:53;;;;;;;5.38;4.30;;;1.00;99.90;;;;;;2044123;29;20027;-72
2023/02/27 00:12:54;;;;;;;7.75;5.25;;;1.00;99.90;;;;;;2044689;29;20102;-72
2023/02/27 00:13:55;;;;;;;5.40;4.20;;;1.00;99.90;;;;;;2045266;28;20019;-72
2023/02/27 00:14:55;;;;;;;4.70;4.22;;;1.00;99.90;;;;;;2036372;29;20118;-72
2023/02/27 00:15:56;;;;;;;5.53;4.72;;;1.00;99.90;;;;;;2034770;29;20031;-72
2023/02/27 00:16:56;;;;;;;5.68;4.70;;;1.00;99.90;;;;;;2045552;29;20034;-72
2023/02/27 00:17:58;;;;;;;7.25;4.97;;;1.00;99.90;;;;;;2045743;28;20042;-72
2023/02/27 00:19:00;;;;;;;6.63;5.10;;;1.00;99.90;;;;;;2044145;28;20391;-72
2023/02/27 00:20:02;;;;;;;8.70;5.43;;;1.00;99.90;;;;;;2045877;28;20012;-72
2023/02/27 00:21:03;;;;;;;6.30;4.72;;;1.00;99.90;;;;;;2036597;29;20034;-72
2023/02/27 00:22:03;;;;;;;9.35;5.75;;;1.00;99.90;;;;;;2039023;29;20016;-72
2023/02/27 00:23:05;;;;;;;7.05;5.78;;;1.00;99.90;;;;;;2045831;28;20058;-72
2023/02/27 00:24:06;;;;;;;7.30;5.57;;;1.00;99.90;;;;;;2046907;28;20027;-72
2023/02/27 00:25:08;;;;;;;5.38;4.85;;;0.90;99.90;;;;;;2044143;28;20078;-72
2023/02/27 00:26:08;;;;;;;7.70;5.85;;;0.90;99.90;;;;;;2036820;29;20024;-72
2023/02/27 00:27:09;;;;;;;7.32;5.60;;;0.90;99.90;;;;;;2036886;29;20124;-72
2023/02/27 00:28:09;;;;;;;5.97;5.32;;;0.90;99.90;;;;;;2045548;28;20392;-72
2023/02/27 00:29:10;;;;;;;7.28;5.60;;;0.90;99.90;;;;;;2045383;28;20503;-72
2023/02/27 00:30:14;;;;;;;6.32;5.32;;;0.90;99.90;;;;;;2044518;28;20031;-72
2023/02/27 00:31:14;;;;;;;6.25;5.65;;;0.90;99.90;;;;;;2043184;28;20019;-72
2023/02/27 00:32:15;;;;;;;7.70;6.38;;;0.90;99.90;;;;;;2044377;28;20505;-72
2023/02/27 00:33:16;;;;;;;6.05;5.35;;;0.90;99.90;;;;;;2043298;29;20055;-72
2023/02/27 00:34:16;;;;;;;6.88;5.65;;;0.90;99.90;;;;;;2044814;28;20102;-72
2023/02/27 00:35:17;;;;;;;7.03;5.57;;;0.80;99.90;;;;;;2045587;28;20125;-72
2023/02/27 00:36:17;;;;;;;7.78;6.72;;;0.80;99.90;;;;;;2043878;28;20027;-72
2023/02/27 00:37:18;;;;;;;8.00;6.82;;;0.80;99.90;;;;;;2045416;28;20134;-72
2023/02/27 00:38:19;;;;;;;6.50;5.90;;;0.80;99.90;;;;;;2045064;28;20041;-72
2023/02/27 00:39:19;;;;;;;7.95;7.13;;;0.80;99.90;;;;;;2045478;28;20110;-73
2023/02/27 00:40:20;;;;;;;7.18;5.95;;;0.80;99.90;;;;;;2043260;28;20040;-72
2023/02/27 00:41:20;;;;;;;7.60;6.00;;;0.80;99.90;;;;;;2046457;28;20051;-72
2023/02/27 00:42:21;;;;;;;6.45;5.72;;;0.80;99.90;;;;;;2046243;28;20024;-72
2023/02/27 00:43:21;;;;;;;6.75;5.68;;;0.70;99.90;;;;;;2046054;28;20035;-72
2023/02/27 00:44:22;;;;;;;7.03;5.75;;;0.80;99.90;;;;;;2045364;28;20049;-72
2023/02/27 00:45:22;;;;;;;8.93;5.88;;;0.70;99.90;;;;;;2036219;29;20039;-72
2023/02/27 00:46:23;;;;;;;8.25;6.80;;;0.70;99.90;;;;;;2037115;29;20035;-72
2023/02/27 00:47:23;;;;;;;6.97;5.97;;;0.70;99.90;;;;;;2044102;28;20510;-72
2023/02/27 00:48:24;;;;;;;8.20;6.07;;;0.70;99.90;;;;;;2036428;29;20656;-72
2023/02/27 00:49:25;;;;;;;6.82;5.85;;;0.70;99.90;;;;;;2037440;29;20484;-72
2023/02/27 00:50:25;;;;;;;7.40;6.03;;;0.70;99.90;;;;;;2044297;28;20375;-72
2023/02/27 00:51:26;;;;;;;7.80;5.97;;;0.70;99.90;;;;;;2045876;28;20555;-72
2023/02/27 00:52:26;;;;;;;5.82;5.32;;;0.70;99.90;;;;;;2046388;28;20649;-72
2023/02/27 00:53:27;;;;;;;7.47;5.82;;;0.70;99.90;;;;;;2045843;28;20102;-72
2023/02/27 00:54:28;;;;;;;8.70;6.53;;;0.70;99.90;;;;;;2043511;28;20042;-72
2023/02/27 00:55:28;;;;;;;7.05;6.35;;;0.60;99.90;;;;;;2043455;28;20566;-72
2023/02/27 00:56:29;;;;;;;7.03;5.85;;;0.60;99.90;;;;;;2044072;28;20023;-72
2023/02/27 00:57:29;;;;;;;6.97;6.28;;;0.60;99.90;;;;;;2044475;28;20095;-72
2023/02/27 00:58:30;;;;;;;7.85;6.25;;;0.60;99.90;;;;;;2044765;28;20028;-72
2023/02/27 00:59:30;;;;;;;7.18;6.03;;;0.60;99.90;;;;;;2044811;29;20019;-72
2023/02/27 01:00:31;;;;;;;7.55;6.55;;;0.60;99.90;;;;;;2043972;28;20137;-72
2023/02/27 01:01:31;;;;;;;6.90;6.07;;;0.60;99.90;;;;;;2044742;29;20035;-72
2023/02/27 01:02:32;;;;;;;9.10;6.15;;;0.60;99.90;;;;;;2043343;29;20112;-72
2023/02/27 01:03:33;;;;;;;8.73;5.72;;;0.60;99.90;;;;;;2043743;28;20047;-72
2023/02/27 01:04:33;;;;;;;7.15;5.70;;;0.50;99.90;;;;;;2044173;28;20090;-72
2023/02/27 01:05:34;;;;;;;7.85;5.40;;;0.50;99.90;;;;;;2044489;28;20666;-72
2023/02/27 01:06:35;;;;;;;7.55;6.20;;;0.50;99.90;;;;;;2044415;28;20051;-72
2023/02/27 01:07:36;;;;;;;8.88;6.32;;;0.50;99.90;;;;;;2044310;28;20020;-72
2023/02/27 01:08:36;;;;;;;6.70;5.50;;;0.50;99.90;;;;;;2043477;29;20139;-72
2023/02/27 01:09:37;;;;;;;7.03;5.90;;;0.50;99.90;;;;;;2043283;28;20152;-72
2023/02/27 01:10:37;;;;;;;8.85;5.72;;;0.50;99.90;;;;;;2044170;28;20034;-72
2023/02/27 01:11:38;;;;;;;8.45;5.88;;;0.40;99.90;;;;;;2043866;28;20140;-72
2023/02/27 01:12:39;;;;;;;7.63;5.68;;;0.50;99.90;;;;;;2045144;28;20122;-72
2023/02/27 01:13:40;;;;;;;7.72;6.18;;;0.50;99.90;;;;;;2044872;28;20032;-72
2023/02/27 01:14:42;;;;;;;7.40;5.93;;;0.50;99.90;;;;;;2043792;28;20032;-72
2023/02/27 01:15:43;;;;;;;7.18;5.50;;;0.50;99.90;;;;;;2044404;28;20745;-72
2023/02/27 01:16:44;;;;;;;9.00;5.50;;;0.50;99.90;;;;;;2042972;28;20395;-72
2023/02/27 01:17:46;;;;;;;7.22;5.55;;;0.40;99.90;;;;;;2045262;28;20057;-72
2023/02/27 01:18:47;;;;;;;8.25;5.25;;;0.40;99.90;;;;;;2044058;28;20110;-72
2023/02/27 01:19:48;;;;;;;9.30;5.40;;;0.50;99.90;;;;;;2043359;28;20038;-72
2023/02/27 01:20:53;;;;;;;8.35;5.22;;;0.40;99.90;;;;;;2043813;28;20476;-72
2023/02/27 01:21:53;;;;;;;7.30;5.55;;;0.50;99.90;;;;;;2046148;28;20031;-72
2023/02/27 01:22:57;;;;;;;8.68;5.68;;;0.40;99.90;;;;;;2044773;28;20027;-72
2023/02/27 01:23:58;;;;;;;6.75;5.30;;;0.50;99.90;;;;;;2044801;28;20042;-72
2023/02/27 01:24:58;;;;;;;7.32;4.93;;;0.40;99.90;;;;;;2044549;28;20034;-72
2023/02/27 01:25:59;;;;;;;10.32;5.65;;;0.40;99.90;;;;;;2044110;28;20376;-72
2023/02/27 01:26:59;;;;;;;7.97;4.60;;;0.50;99.90;;;;;;2045061;28;20967;-72
2023/02/27 01:28:00;;;;;;;7.78;5.45;;;0.50;99.90;;;;;;2045798;29;20025;-72
2023/02/27 01:29:01;;;;;;;7.55;5.15;;;0.50;99.90;;;;;;2045741;28;20027;-72
2023/02/27 01:30:02;;;;;;;7.43;5.38;;;0.50;99.90;;;;;;2043418;28;20020;-72
2023/02/27 01:31:03;;;;;;;10.02;5.60;;;0.50;99.90;;;;;;2043861;28;20083;-72
2023/02/27 01:32:04;;;;;;;6.22;4.85;;;0.50;99.90;;;;;;2042395;28;20114;-72
2023/02/27 01:33:04;;;;;;;6.47;4.68;;;0.50;99.90;;;;;;2044609;28;20051;-72
2023/02/27 01:34:05;;;;;;;8.02;5.43;;;0.50;99.90;;;;;;2042868;28;20480;-72
2023/02/27 01:35:06;;;;;;;7.88;4.78;;;0.50;99.90;;;;;;2045371;28;20054;-72
2023/02/27 01:36:07;;;;;;;8.70;5.65;;;0.50;99.90;;;;;;2045239;28;20031;-72
2023/02/27 01:37:07;;;;;;;6.68;5.07;;;0.50;99.90;;;;;;2043700;28;20035;-72
2023/02/27 01:38:08;;;;;;;6.65;4.70;;;0.50;99.90;;;;;;2044469;28;20023;-72
2023/02/27 01:39:08;;;;;;;7.03;4.63;;;0.60;99.90;;;;;;2046211;28;20027;-72
2023/02/27 01:40:09;;;;;;;9.20;5.25;;;0.60;99.90;;;;;;2041602;28;20031;-72
2023/02/27 01:41:10;;;;;;;10.13;5.47;;;0.60;99.90;;;;;;2044258;28;20372;-72
2023/02/27 01:42:22;;;;;;;8.90;5.05;;;0.60;99.90;;;;;;2042859;28;20020;-72
2023/02/27 01:43:23;;;;;;;8.77;5.00;;;0.60;99.90;;;;;;2044693;28;20159;-72
2023/02/27 01:44:29;;;;;;;10.55;5.95;;;0.60;99.90;;;;;;2045538;28;20071;-72
2023/02/27 01:45:49;;;;;;;8.52;4.82;;;0.70;99.90;;;;;;2035680;29;20024;-72
2023/02/27 01:46:49;;;;;;;6.97;4.93;;;0.70;99.90;;;;;;2037198;29;20551;-72
2023/02/27 01:47:54;;;;;;;7.25;4.88;;;0.60;99.90;;;;;;2045695;28;20035;-72
2023/02/27 01:48:59;;;;;;;10.65;5.07;;;0.60;99.90;;;;;;2045041;28;20027;-72
2023/02/27 01:50:00;;;;;;;6.30;4.90;;;0.70;99.90;;;;;;2044827;29;20027;-72
2023/02/27 01:51:07;;;;;;;9.57;4.97;;;0.70;99.90;;;;;;2045722;28;20098;-72
2023/02/27 01:52:10;;;;;;;8.18;5.30;;;0.70;99.90;;;;;;2042026;28;20038;-72
2023/02/27 01:53:12;;;;;;;7.70;4.97;;;0.70;99.90;;;;;;2044448;28;20081;-72
2023/02/27 01:54:18;;;;;;;6.72;4.88;;;0.70;99.90;;;;;;2043080;28;20043;-72
2023/02/27 01:55:19;;;;;;;6.80;5.18;;;0.70;99.90;;;;;;2042828;28;20105;-72
2023/02/27 01:56:27;;;;;;;6.97;4.60;;;0.70;99.90;;;;;;2044337;28;20058;-72
2023/02/27 01:57:28;;;;;;;7.22;4.47;;;0.70;99.90;;;;;;2044036;28;20400;-72
2023/02/27 01:58:29;;;;;;;8.95;4.70;;;0.70;99.90;;;;;;2036206;29;20023;-72
2023/02/27 01:59:29;;;;;;;9.52;5.20;;;0.70;99.90;;;;;;2037068;29;20023;-72
2023/02/27 02:00:30;;;;;;;6.90;4.97;;;0.70;99.90;;;;;;2043307;28;20355;-72
2023/02/27 02:01:32;;;;;;;7.55;5.25;;;0.70;99.90;;;;;;2043487;28;20039;-72
2023/02/27 02:02:39;;;;;;;8.55;5.20;;;0.70;99.90;;;;;;2044958;28;20138;-73
2023/02/27 02:03:53;;;;;;;7.07;5.22;;;0.70;99.90;;;;;;2043702;28;20035;-72
2023/02/27 02:04:55;;;;;;;8.18;5.32;;;0.80;99.90;;;;;;2044553;28;20031;-72
2023/02/27 02:05:58;;;;;;;10.57;5.28;;;0.70;99.90;;;;;;2044920;28;20074;-72
2023/02/27 02:07:06;;;;;;;9.05;5.20;;;0.70;99.90;;;;;;2043722;29;20098;-72
2023/02/27 02:08:06;;;;;;;7.13;4.70;;;0.70;99.90;;;;;;2046085;28;20019;-72
2023/02/27 02:09:09;;;;;;;11.23;5.78;;;0.70;99.90;;;;;;2035204;29;20048;-72
2023/02/27 02:10:11;;;;;;;7.10;4.88;;;0.70;99.90;;;;;;2024868;29;20719;-72
2023/02/27 02:11:16;;;;;;;7.90;5.15;;;0.70;99.90;;;;;;2028189;29;20181;-72
2023/02/27 02:12:20;;;;;;;6.82;5.03;;;0.80;99.90;;;;;;2037453;29;20508;-72
2023/02/27 02:13:21;;;;;;;7.10;5.07;;;0.80;99.90;;;;;;2044096;28;20042;-72
2023/02/27 02:14:22;;;;;;;7.68;5.50;;;0.80;99.90;;;;;;2044435;28;20078;-72
2023/02/27 02:15:29;;;;;;;8.48;5.07;;;0.80;99.90;;;;;;2044308;28;20466;-72
2023/02/27 02:16:50;;;;;;;9.23;5.18;;;0.80;99.90;;;;;;2043023;28;20024;-72
2023/02/27 02:18:07;;;;;;;8.45;5.20;;;0.80;99.90;;;;;;2043701;28;20114;-72
2023/02/27 02:19:43;;;;;;;9.20;5.15;;;0.80;99.90;;;;;;2043918;28;20027;-72
2023/02/27 02:21:03;;;;;;;9.57;5.00;;;0.80;99.90;;;;;;2045088;28;20032;-72
2023/02/27 02:22:38;;;;;;;6.05;4.78;;;0.70;99.90;;;;;;2044142;28;20046;-72
2023/02/27 02:23:49;;;;;;;8.05;5.38;;;0.80;99.90;;;;;;2044463;28;20031;-72
2023/02/27 02:25:21;;;;;;;12.00;5.57;;;0.70;99.90;;;;;;2043855;28;20031;-72
2023/02/27 02:26:47;;;;;;;7.95;5.20;;;0.70;99.90;;;;;;2042752;28;20170;-72
2023/02/27 02:28:14;;;;;;;8.07;5.13;;;0.70;99.90;;;;;;2045178;28;20031;-72
2023/02/27 02:29:47;;;;;;;7.85;5.15;;;0.70;99.90;;;;;;2043700;28;20043;-72
2023/02/27 02:30:56;;;;;;;8.57;4.85;;;0.70;99.90;;;;;;2044282;28;20736;-72
2023/02/27 02:32:25;;;;;;;7.75;4.72;;;0.70;99.90;;;;;;2044195;28;20030;-72
2023/02/27 02:33:31;;;;;;;7.18;5.45;;;0.70;99.90;;;;;;2043978;28;20023;-72
2023/02/27 02:34:34;;;;;;;6.95;5.05;;;0.70;99.90;;;;;;2043700;28;20027;-72
2023/02/27 02:35:59;;;;;;;6.88;5.40;;;0.70;99.90;;;;;;2043208;28;20693;-72
2023/02/27 02:37:36;;;;;;;11.55;5.50;;;0.70;99.90;;;;;;2045210;28;20038;-72
2023/02/27 02:38:48;;;;;;;6.60;4.70;;;0.70;99.90;;;;;;2040613;28;20031;-72
2023/02/27 02:40:26;;;;;;;6.93;4.57;;;0.70;99.90;;;;;;2043683;28;20567;-72
2023/02/27 02:41:38;;;;;;;7.65;5.05;;;0.70;99.90;;;;;;2043137;28;20058;-72
2023/02/27 02:43:18;;;;;;;6.65;5.43;;;0.60;99.90;;;;;;2042472;28;20028;-72
2023/02/27 02:44:23;;;;;;;5.00;4.43;;;0.60;99.90;;;;;;2046236;28;20034;-72
2023/02/27 02:45:42;;;;;;;7.45;5.10;;;0.60;99.90;;;;;;2046058;28;20070;-72
2023/02/27 02:46:59;;;;;;;7.27;5.27;;;0.60;99.90;;;;;;2046676;28;20122;-72
2023/02/27 02:48:19;;;;;;;8.73;4.85;;;0.60;99.90;;;;;;2044085;28;20279;-73
2023/02/27 02:49:29;;;;;;;6.55;4.88;;;0.60;99.90;;;;;;2046149;28;20051;-72
2023/02/27 02:50:50;;;;;;;7.45;5.28;;;0.60;99.90;;;;;;2044769;28;20011;-72
2023/02/27 02:51:54;;;;;;;8.27;5.57;;;0.60;99.90;;;;;;2037816;29;20038;-72
2023/02/27 02:53:30;;;;;;;7.78;5.15;;;0.60;99.90;;;;;;2036680;29;20021;-72
2023/02/27 02:54:46;;;;;;;6.38;5.32;;;0.60;99.90;;;;;;2044523;28;20160;-72
2023/02/27 02:55:54;;;;;;;7.00;5.25;;;0.60;99.90;;;;;;2045486;28;20039;-72
2023/02/27 02:57:04;;;;;;;5.80;5.18;;;0.60;99.90;;;;;;2045520;28;20081;-72
2023/02/27 02:58:28;;;;;;;5.18;4.65;;;0.60;99.90;;;;;;2045004;29;20023;-72
2023/02/27 02:59:38;;;;;;;7.60;4.85;;;0.60;99.90;;;;;;2044670;28;20033;-72
2023/02/27 03:00:45;;;;;;;8.43;5.38;;;0.50;99.90;;;;;;2044623;28;20920;-72
2023/02/27 03:01:55;;;;;;;8.75;5.28;;;0.50;99.90;;;;;;2045025;29;20047;-72
2023/02/27 03:03:13;;;;;;;6.45;5.15;;;0.50;99.90;;;;;;2044364;28;20032;-72
2023/02/27 03:04:30;;;;;;;6.45;5.70;;;0.50;99.90;;;;;;2044221;28;20605;-72
2023/02/27 03:05:37;;;;;;;8.00;6.43;;;0.50;99.90;;;;;;2046286;29;20034;-72
2023/02/27 03:06:46;;;;;;;10.02;6.65;;;0.50;99.90;;;;;;2043386;28;20484;-72
2023/02/27 03:08:12;;;;;;;8.38;6.82;;;0.50;99.90;;;;;;2045296;28;20034;-72
2023/02/27 03:09:19;;;;;;;7.78;6.03;;;0.50;99.90;;;;;;2045515;28;20055;-73
2023/02/27 03:10:45;;;;;;;9.52;6.47;;;0.50;99.90;;;;;;2045130;28;20024;-72
2023/02/27 03:11:49;;;;;;;8.35;5.90;;;0.50;99.90;;;;;;2046969;28;20035;-72
2023/02/27 03:12:57;;;;;;;10.07;6.07;;;0.50;99.90;;;;;;2043113;28;20126;-72
2023/02/27 03:14:23;;;;;;;9.50;5.93;;;0.50;99.90;;;;;;2036448;29;20020;-72
2023/02/27 03:15:37;;;;;;;8.18;5.40;;;0.40;99.90;;;;;;2039348;29;20031;-72
2023/02/27 03:16:44;;;;;;;7.00;5.38;;;0.40;99.90;;;;;;2046157;28;20118;-72
2023/02/27 03:18:09;;;;;;;9.27;6.00;;;0.40;99.90;;;;;;2045611;28;20081;-72
2023/02/27 03:19:36;;;;;;;6.65;5.43;;;0.40;99.90;;;;;;2046609;28;20024;-72
2023/02/27 03:20:41;;;;;;;7.35;5.22;;;0.40;99.90;;;;;;2045762;28;20484;-72
2023/02/27 03:21:54;;;;;;;6.95;5.00;;;0.40;99.90;;;;;;2044219;28;20034;-72
2023/02/27 03:23:00;;;;;;;9.85;5.53;;;0.40;99.90;;;;;;2045993;28;20027;-72
2023/02/27 03:24:04;;;;;;;9.48;5.78;;;0.40;99.90;;;;;;2046975;28;20106;-72
2023/02/27 03:25:11;;;;;;;8.50;6.40;;;0.40;99.90;;;;;;2045053;28;20163;-72
2023/02/27 03:26:17;;;;;;;6.38;5.25;;;0.40;99.90;;;;;;2046233;29;20410;-72
2023/02/27 03:27:19;;;;;;;6.50;5.22;;;0.40;99.90;;;;;;2047413;28;20091;-72
2023/02/27 03:28:25;;;;;;;8.40;5.65;;;0.40;99.90;;;;;;2045263;28;20038;-72
2023/02/27 03:29:34;;;;;;;9.55;6.20;;;0.40;99.90;;;;;;2045116;28;20015;-72
2023/02/27 03:30:49;;;;;;;7.45;5.93;;;0.40;99.90;;;;;;2044451;28;20023;-72
2023/02/27 03:31:59;;;;;;;7.60;5.40;;;0.40;99.90;;;;;;2044245;28;20031;-72
2023/02/27 03:33:14;;;;;;;8.50;5.97;;;0.30;99.90;;;;;;2043456;28;20067;-72
2023/02/27 03:34:23;;;;;;;7.00;5.70;;;0.30;99.90;;;;;;2043900;28;20050;-72
2023/02/27 03:35:52;;;;;;;8.18;5.60;;;0.30;99.90;;;;;;2045582;28;20031;-72
2023/02/27 03:37:05;;;;;;;8.13;5.55;;;0.30;99.90;;;;;;2014503;29;20052;-72
2023/02/27 03:38:31;;;;;;;7.63;5.70;;;0.30;99.90;;;;;;2045286;28;20039;-72
2023/02/27 03:39:46;;;;;;;8.38;5.63;;;0.30;99.90;;;;;;2035412;29;20079;-72
2023/02/27 03:41:10;;;;;;;7.75;5.90;;;0.20;99.90;;;;;;2039120;29;20035;-72
2023/02/27 03:42:28;;;;;;;8.30;6.03;;;0.20;99.90;;;;;;2044616;28;20137;-72
2023/02/27 03:43:53;;;;;;;9.40;5.70;;;0.20;99.90;;;;;;2044836;28;20027;-72
2023/02/27 03:45:13;;;;;;;7.22;5.63;;;0.20;99.90;;;;;;2044123;28;20027;-72
2023/02/27 03:46:21;;;;;;;10.35;6.10;;;0.20;99.90;;;;;;2044383;28;20458;-72
2023/02/27 03:47:22;;;;;;;9.95;6.30;;;0.20;99.90;;;;;;2045959;28;20108;-72
2023/02/27 03:48:22;;;;;;;7.22;5.45;;;0.20;99.90;;;;;;2045522;28;20026;-72
2023/02/27 03:49:23;;;;;;;8.93;5.47;;;0.20;99.90;;;;;;2045916;28;20031;-72
2023/02/27 03:50:24;;;;;;;7.88;6.00;;;0.20;99.90;;;;;;2044114;28;20159;-72
2023/02/27 03:51:26;;;;;;;9.30;5.90;;;0.20;99.90;;;;;;2044494;28;20023;-72
2023/02/27 03:52:28;;;;;;;8.93;6.38;;;0.20;99.90;;;;;;2045344;28;20023;-72
2023/02/27 03:53:48;;;;;;;8.35;6.03;;;0.20;99.90;;;;;;2037208;29;20042;-72
2023/02/27 03:54:55;;;;;;;8.73;5.88;;;0.20;99.90;;;;;;2036335;29;20037;-72
2023/02/27 03:55:57;;;;;;;6.63;5.43;;;0.20;99.90;;;;;;2044732;28;20077;-72
2023/02/27 03:57:05;;;;;;;6.18;5.10;;;0.20;99.90;;;;;;2045800;28;20071;-72
2023/02/27 03:58:06;;;;;;;6.32;5.10;;;0.20;99.90;;;;;;2045060;28;20039;-72
2023/02/27 03:59:07;;;;;;;6.75;5.40;;;0.20;99.90;;;;;;2043275;28;20023;-72
2023/02/27 04:00:12;;;;;;;8.30;5.78;;;0.20;99.90;;;;;;2043775;28;20043;-72
2023/02/27 04:01:13;;;;;;;8.98;6.15;;;0.20;99.90;;;;;;2035127;29;20629;-72
2023/02/27 04:02:15;;;;;;;9.57;5.60;;;0.20;99.90;;;;;;2036533;29;20470;-72
2023/02/27 04:03:16;;;;;;;7.07;4.90;;;0.20;99.90;;;;;;2045600;28;20103;-72
2023/02/27 04:04:17;;;;;;;6.38;5.03;;;0.20;99.90;;;;;;2045885;28;20039;-72
2023/02/27 04:05:19;;;;;;;6.68;5.18;;;0.20;99.90;;;;;;2045874;28;20090;-72
2023/02/27 04:08:19;;;;;;;7.30;5.43;;;0.20;99.90;;;;;;2044147;28;20031;-72
2023/02/27 04:09:54;;;;;;;7.18;5.38;;;0.20;99.90;;;;;;2044727;28;20079;-72
2023/02/27 04:11:19;;;;;;;7.40;5.75;;;0.10;99.90;;;;;;2044013;28;20120;-72
2023/02/27 04:12:29;;;;;;;8.25;6.32;;;0.10;99.90;;;;;;2043668;28;20019;-72
2023/02/27 04:13:33;;;;;;;6.72;5.88;;;0.00;99.90;;;;;;2043597;28;20019;-72
2023/02/27 04:14:53;;;;;;;9.65;6.07;;;0.00;99.90;;;;;;2044498;28;20867;-72
2023/02/27 04:16:00;;;;;;;7.60;5.70;;;0.10;99.90;;;;;;2045013;28;20122;-72
2023/02/27 04:17:22;;;;;;;5.75;5.00;;;0.00;99.90;;;;;;2038299;29;20054;-72
2023/02/27 04:18:28;;;;;;;7.18;5.47;;;0.00;99.90;;;;;;2040997;29;20524;-72
2023/02/27 04:19:50;;;;;;;9.23;6.28;;;0.00;99.90;;;;;;2046751;28;20034;-72
2023/02/27 04:20:58;;;;;;;10.55;6.28;;;0.00;99.90;;;;;;2044559;28;20027;-72
2023/02/27 04:22:10;;;;;;;9.48;6.45;;;0.00;99.90;;;;;;2043417;28;20140;-72
2023/02/27 04:23:42;;;;;;;7.55;6.00;;;0.00;99.90;;;;;;2044370;28;20093;-72
2023/02/27 04:25:15;;;;;;;7.28;5.85;;;-0.10;99.90;;;;;;2045474;28;20039;-72
2023/02/27 04:26:27;;;;;;;5.90;5.25;;;0.00;99.90;;;;;;2045835;28;20059;-72
2023/02/27 04:27:46;;;;;;;8.80;6.25;;;-0.10;99.90;;;;;;2044295;28;20019;-72
2023/02/27 04:28:54;;;;;;;6.60;4.80;;;-0.10;99.90;;;;;;2044487;28;20024;-72
2023/02/27 04:29:58;;;;;;;6.20;5.00;;;-0.10;99.90;;;;;;2044339;28;20034;-72
2023/02/27 04:31:04;;;;;;;7.82;5.35;;;-0.10;99.90;;;;;;2035592;29;20471;-72
2023/02/27 04:32:25;;;;;;;7.82;5.78;;;-0.10;99.90;;;;;;2036622;29;20035;-72
2023/02/27 04:33:59;;;;;;;8.98;6.28;;;-0.10;99.90;;;;;;2029506;29;20032;-72
2023/02/27 04:35:24;;;;;;;8.70;5.30;;;-0.20;99.90;;;;;;2044957;28;20079;-72
2023/02/27 04:36:43;;;;;;;5.82;5.22;;;-0.20;99.90;;;;;;2044306;28;20062;-72
2023/02/27 04:38:09;;;;;;;7.05;5.85;;;-0.20;99.90;;;;;;2037249;28;20027;-72
2023/02/27 04:39:37;;;;;;;7.45;5.93;;;-0.20;99.90;;;;;;2040123;29;20027;-72
2023/02/27 04:40:49;;;;;;;6.60;5.40;;;-0.20;99.90;;;;;;2037437;29;20028;-72
2023/02/27 04:42:02;;;;;;;9.82;6.50;;;-0.20;99.90;;;;;;2040613;29;20043;-72
2023/02/27 04:43:06;;;;;;;7.32;6.30;;;-0.20;99.90;;;;;;2043886;28;20015;-72
2023/02/27 04:44:09;;;;;;;9.50;5.63;;;-0.20;99.90;;;;;;2044315;28;20031;-71
2023/02/27 04:45:13;;;;;;;9.07;6.53;;;-0.20;99.90;;;;;;2036295;29;20082;-72
2023/02/27 04:46:16;;;;;;;10.07;6.25;;;-0.20;99.90;;;;;;2037852;29;20027;-72
2023/02/27 04:47:18;;;;;;;8.98;6.35;;;-0.20;99.90;;;;;;2044280;28;20494;-72
2023/02/27 04:48:31;;;;;;;8.85;6.22;;;-0.20;99.90;;;;;;2043118;28;20171;-72
2023/02/27 04:49:39;;;;;;;6.85;6.03;;;-0.10;99.90;;;;;;2044306;28;20039;-72
2023/02/27 04:50:46;;;;;;;7.35;5.53;;;-0.10;99.90;;;;;;2043103;28;20030;-72
2023/02/27 04:51:51;;;;;;;8.25;5.78;;;-0.20;99.90;;;;;;2043774;28;20607;-71
2023/02/27 04:52:58;;;;;;;7.53;5.55;;;-0.20;99.90;;;;;;2037028;29;20821;-72
2023/02/27 04:54:11;;;;;;;8.85;6.07;;;-0.20;99.90;;;;;;2030150;29;20104;-72
2023/02/27 04:55:28;;;;;;;8.57;6.63;;;-0.20;99.90;;;;;;2036284;29;20035;-72
2023/02/27 04:56:33;;;;;;;9.27;5.65;;;-0.20;99.90;;;;;;2042746;28;20015;-72
2023/02/27 04:57:40;;;;;;;9.40;6.50;;;-0.20;99.90;;;;;;2044967;28;20031;-72
2023/02/27 04:58:47;;;;;;;7.07;6.18;;;-0.20;99.90;;;;;;2045997;28;20023;-72
2023/02/27 04:59:53;;;;;;;8.35;6.53;;;-0.20;99.90;;;;;;2035155;29;20034;-72
2023/02/27 05:01:00;;;;;;;8.68;5.93;;;-0.20;99.90;;;;;;2028683;29;20035;-72
2023/02/27 05:02:10;;;;;;;9.20;6.10;;;-0.20;99.90;;;;;;2036639;29;20083;-72
2023/02/27 05:03:17;;;;;;;6.93;6.22;;;-0.20;99.90;;;;;;2043117;28;20020;-72
2023/02/27 05:04:20;;;;;;;8.95;6.22;;;-0.20;99.90;;;;;;2045706;28;20039;-72
2023/02/27 05:05:25;;;;;;;8.65;6.22;;;-0.30;99.90;;;;;;2039374;29;20024;-72
2023/02/27 05:06:31;;;;;;;10.35;6.70;;;-0.20;99.90;;;;;;2039551;28;20095;-72
2023/02/27 05:07:48;;;;;;;9.32;6.43;;;-0.30;99.90;;;;;;2046440;28;20056;-72
2023/02/27 05:09:12;;;;;;;8.13;5.55;;;-0.20;99.90;;;;;;2044611;28;20019;-72
2023/02/27 05:10:29;;;;;;;7.30;6.13;;;-0.20;99.90;;;;;;2045528;28;20032;-72
2023/02/27 05:12:03;;;;;;;12.35;5.85;;;-0.30;99.90;;;;;;2044435;28;20447;-72
2023/02/27 05:13:15;;;;;;;10.27;5.80;;;-0.30;99.90;;;;;;2037358;29;20422;-72
2023/02/27 05:14:38;;;;;;;10.77;6.07;;;-0.30;99.90;;;;;;2030046;29;20099;-72
2023/02/27 05:15:45;;;;;;;9.95;5.82;;;-0.30;99.90;;;;;;2033000;29;20030;-72
2023/02/27 05:17:16;;;;;;;9.43;6.22;;;-0.30;99.90;;;;;;2038921;29;20039;-72
2023/02/27 05:18:20;;;;;;;8.73;5.97;;;-0.30;99.90;;;;;;2042887;28;20031;-72
2023/02/27 05:19:21;;;;;;;6.90;6.20;;;-0.30;99.90;;;;;;2043531;28;20020;-72
2023/02/27 05:20:26;;;;;;;8.82;6.07;;;-0.30;99.90;;;;;;2042764;28;20023;-72
2023/02/27 05:21:48;;;;;;;9.25;6.65;;;-0.30;99.90;;;;;;2044240;28;20031;-72
2023/02/27 05:23:08;;;;;;;7.93;5.90;;;-0.30;99.90;;;;;;2043457;28;20034;-72
2023/02/27 05:24:34;;;;;;;10.65;6.07;;;-0.30;99.90;;;;;;2043714;28;20035;-72
2023/02/27 05:25:52;;;;;;;8.60;6.15;;;-0.40;99.90;;;;;;2036608;29;20039;-72
2023/02/27 05:27:01;;;;;;;8.55;6.43;;;-0.40;99.90;;;;;;2038521;29;20083;-72
2023/02/27 05:28:08;;;;;;;8.05;6.20;;;-0.40;99.90;;;;;;2043834;29;20664;-72
2023/02/27 05:29:39;;;;;;;9.48;6.60;;;-0.40;99.90;;;;;;2043887;28;20031;-72
2023/02/27 05:30:51;;;;;;;8.38;5.82;;;-0.30;99.90;;;;;;2043946;28;20039;-72
2023/02/27 05:32:01;;;;;;;9.85;5.97;;;-0.40;99.90;;;;;;2035037;29;20032;-72
2023/02/27 05:33:28;;;;;;;8.75;5.82;;;-0.40;99.90;;;;;;2037414;29;20028;-72
2023/02/27 05:34:54;;;;;;;6.88;5.75;;;-0.40;99.90;;;;;;2043641;28;20051;-72
2023/02/27 05:36:04;;;;;;;6.45;5.80;;;-0.40;99.90;;;;;;2041811;28;20034;-72
2023/02/27 05:37:12;;;;;;;9.07;6.22;;;-0.40;99.90;;;;;;2042591;28;20023;-72
2023/02/27 05:38:38;;;;;;;7.60;6.28;;;-0.40;99.90;;;;;;2042232;28;20031;-72
2023/02/27 05:39:42;;;;;;;7.07;6.38;;;-0.40;99.90;;;;;;2045367;28;20447;-72
2023/02/27 05:40:48;;;;;;;9.23;6.28;;;-0.40;99.90;;;;;;2042961;28;20102;-72
2023/02/27 05:42:01;;;;;;;10.27;6.82;;;-0.40;99.90;;;;;;2034282;29;20110;-72
2023/02/27 05:43:07;;;;;;;14.25;6.25;;;-0.40;99.90;;;;;;2037067;29;20024;-72
2023/02/27 05:44:26;;;;;;;9.20;6.32;;;-0.40;99.90;;;;;;2044965;28;20464;-72
2023/02/27 05:45:31;;;;;;;9.45;6.15;;;-0.40;99.90;;;;;;2036479;29;20039;-72
2023/02/27 05:46:40;;;;;;;11.75;6.50;;;-0.40;99.90;;;;;;2038684;28;20793;-72
2023/02/27 05:47:46;;;;;;;8.75;6.90;;;-0.40;99.90;;;;;;2044739;28;20043;-72
2023/02/27 05:48:53;;;;;;;8.05;5.90;;;-0.30;99.90;;;;;;2043774;28;20019;-72
2023/02/27 05:50:11;;;;;;;10.68;6.72;;;-0.30;99.90;;;;;;2042749;28;20027;-72
2023/02/27 05:51:15;;;;;;;10.68;6.63;;;-0.40;99.90;;;;;;2043242;28;20078;-72
2023/02/27 05:52:21;;;;;;;8.30;6.15;;;-0.40;99.90;;;;;;2044779;28;20020;-72
2023/02/27 05:53:27;;;;;;;8.40;6.45;;;-0.40;99.90;;;;;;2044537;28;20031;-72
2023/02/27 05:54:49;;;;;;;8.40;6.05;;;-0.40;99.90;;;;;;2044088;28;20038;-71
2023/02/27 05:55:55;;;;;;;7.05;5.90;;;-0.40;99.90;;;;;;2044955;28;20102;-72
2023/02/27 05:56:58;;;;;;;7.18;6.47;;;-0.40;99.90;;;;;;2046113;28;20023;-72
2023/02/27 05:58:16;;;;;;;10.88;5.95;;;-0.40;99.90;;;;;;2046031;28;20467;-72
2023/02/27 05:59:30;;;;;;;6.45;5.78;;;-0.30;99.90;;;;;;2042943;28;20054;-72
2023/02/27 06:00:55;;;;;;;9.55;6.28;;;-0.40;99.90;;;;;;2044232;28;20027;-72
2023/02/27 06:01:56;;;;;;;8.80;5.47;;;-0.50;99.90;;;;;;2044545;29;20165;-72